Game Lodge, South Dakota
Current Conditions -  °F | °C
As of 8:53 PM on Friday 24 Oct 2014 (Local Time) from KCUT Reporting Station
Clear Clear  
Wind Chill: 44°   Ceiling: Unl
Heat Index: 46°   Visibility: 10mi
Dew Point: 35°   Wind: 5mph
Humidity: 66%   Direction: 10°N
Pressure: 30.17"   Gusts: NA
Location:  43.6653°N, 103.766°W
Report Text: KCUT 250253Z AUTO 01004KT 10SM CLR 08/02 A3017 RMK AO2 SLP186 T00780017 51014
Loading
Personal Weather Stations






























Interactive Weather Map
Tropical Storm Tracking
New forecast layout! Learn more

10-Day Weather Forecast

Advertisements
Track Severe Weather on mobile